Time;durP1;ratioP1;P1;durP2;ratioP2;P2;SDS_P1;SDS_P2;PMS_P1;PMS_P2;Temp;Humidity;BMP_temperature;BMP_pressure;BME280_temperature;BME280_humidity;BME280_pressure;Samples;Min_cycle;Max_cycle;Signal;HPM_P1;HPM_P2
2021/09/03 00:01:03;;;;;;;21.02;7.75;;;14.80;74.90;;;;;;4804057;29;20054;-74
2021/09/03 00:03:32;;;;;;;21.60;7.80;;;14.80;75.00;;;;;;4805345;29;20397;-74
2021/09/03 00:06:00;;;;;;;23.38;8.65;;;14.80;75.10;;;;;;4804985;29;20055;-73
2021/09/03 00:08:27;;;;;;;15.35;7.40;;;14.80;75.10;;;;;;4803701;29;20382;-74
2021/09/03 00:10:55;;;;;;;15.95;7.30;;;14.80;75.20;;;;;;4804433;29;20543;-74
2021/09/03 00:13:22;;;;;;;16.35;7.53;;;14.70;75.20;;;;;;4804928;29;20047;-74
2021/09/03 00:15:50;;;;;;;20.60;7.72;;;14.70;75.20;;;;;;4804189;29;20150;-73
2021/09/03 00:18:18;;;;;;;15.63;7.00;;;14.70;75.30;;;;;;4804826;29;20046;-74
2021/09/03 00:20:46;;;;;;;19.02;7.90;;;14.70;75.40;;;;;;4804823;29;20513;-74
2021/09/03 00:23:13;;;;;;;19.70;7.00;;;14.70;75.40;;;;;;4802967;29;20054;-75
2021/09/03 00:25:42;;;;;;;20.08;7.68;;;14.70;75.50;;;;;;4797136;29;20055;-74
2021/09/03 00:28:09;;;;;;;20.50;8.20;;;14.70;75.50;;;;;;4804656;29;20051;-72
2021/09/03 00:30:37;;;;;;;20.95;8.13;;;14.70;75.50;;;;;;4804535;29;20058;-73
2021/09/03 00:33:04;;;;;;;16.17;7.95;;;14.70;75.60;;;;;;4804223;29;20059;-72
2021/09/03 00:35:32;;;;;;;19.23;8.52;;;14.70;75.60;;;;;;4804802;29;20070;-78
2021/09/03 00:38:00;;;;;;;18.33;7.90;;;14.70;75.70;;;;;;4807365;29;20047;-74
2021/09/03 00:40:27;;;;;;;21.77;8.18;;;14.70;75.70;;;;;;4807304;29;20055;-72
2021/09/03 00:42:55;;;;;;;25.40;9.30;;;14.60;75.70;;;;;;4808498;29;20051;-74
2021/09/03 00:45:22;;;;;;;20.13;7.78;;;14.60;75.80;;;;;;4808281;29;20051;-72
2021/09/03 00:47:50;;;;;;;18.52;8.57;;;14.60;75.80;;;;;;4807939;29;20399;-74
2021/09/03 00:50:18;;;;;;;16.42;7.90;;;14.60;76.00;;;;;;4808113;29;20062;-74
2021/09/03 00:52:45;;;;;;;19.20;8.45;;;14.60;76.00;;;;;;4808166;29;20387;-74
2021/09/03 00:55:13;;;;;;;22.02;8.75;;;14.60;75.90;;;;;;4813604;29;20054;-74
2021/09/03 00:57:41;;;;;;;17.95;8.65;;;14.60;76.00;;;;;;4808395;29;20051;-74
2021/09/03 01:00:09;;;;;;;16.95;8.48;;;14.60;76.00;;;;;;4821512;29;20641;-74
2021/09/03 01:02:37;;;;;;;16.58;8.50;;;14.60;76.10;;;;;;4807876;29;20051;-74
2021/09/03 01:05:06;;;;;;;18.13;8.45;;;14.60;76.10;;;;;;4821673;29;20055;-74
2021/09/03 01:07:34;;;;;;;17.67;8.93;;;14.60;76.20;;;;;;4807756;29;20086;-74
2021/09/03 01:10:03;;;;;;;17.85;8.38;;;14.50;76.20;;;;;;4806618;29;20059;-74
2021/09/03 01:12:32;;;;;;;19.48;8.35;;;14.50;76.20;;;;;;4807585;29;20501;-74
2021/09/03 01:14:59;;;;;;;15.35;8.27;;;14.60;76.20;;;;;;4807806;29;20054;-74
2021/09/03 01:17:27;;;;;;;21.10;8.20;;;14.50;76.30;;;;;;4807144;29;20069;-73
2021/09/03 01:19:55;;;;;;;19.60;8.30;;;14.60;76.30;;;;;;4807663;29;20063;-74
2021/09/03 01:22:23;;;;;;;17.45;8.60;;;14.50;76.40;;;;;;4807416;29;20432;-74
2021/09/03 01:24:50;;;;;;;18.88;8.07;;;14.50;76.50;;;;;;4807713;29;20053;-74
2021/09/03 01:27:18;;;;;;;19.48;8.40;;;14.50;76.50;;;;;;4807471;29;20043;-73
2021/09/03 01:29:46;;;;;;;18.60;8.70;;;14.50;76.60;;;;;;4807534;29;20067;-73
2021/09/03 01:32:13;;;;;;;24.83;8.60;;;14.50;76.70;;;;;;4806933;29;20076;-74
2021/09/03 01:34:41;;;;;;;18.10;8.50;;;14.50;76.70;;;;;;4820207;29;20055;-74
2021/09/03 01:37:08;;;;;;;13.68;8.38;;;14.50;76.80;;;;;;4807362;29;20055;-74
2021/09/03 01:39:36;;;;;;;22.85;8.68;;;14.50;76.80;;;;;;4806336;29;20069;-73
2021/09/03 01:42:04;;;;;;;21.10;9.32;;;14.40;77.00;;;;;;4806145;29;20051;-74
2021/09/03 01:44:32;;;;;;;16.02;7.95;;;14.40;77.10;;;;;;4805281;29;20043;-74
2021/09/03 01:47:00;;;;;;;19.02;8.88;;;14.40;77.20;;;;;;4806678;29;20058;-74
2021/09/03 01:49:28;;;;;;;23.40;9.30;;;14.40;77.30;;;;;;4806600;29;20055;-73
2021/09/03 01:51:55;;;;;;;18.67;8.60;;;14.40;77.30;;;;;;4806413;29;20501;-71
2021/09/03 01:54:23;;;;;;;22.17;9.05;;;14.30;77.40;;;;;;4806939;29;20517;-72
2021/09/03 01:56:50;;;;;;;23.60;8.60;;;14.40;77.40;;;;;;4805063;29;20513;-73
2021/09/03 01:59:18;;;;;;;17.65;9.10;;;14.40;77.40;;;;;;4806609;29;20055;-73
2021/09/03 02:01:46;;;;;;;16.30;8.70;;;14.30;77.50;;;;;;4806443;29;20050;-72
2021/09/03 02:04:16;;;;;;;16.58;9.02;;;14.40;77.60;;;;;;4820592;29;20524;-71
2021/09/03 02:06:45;;;;;;;17.88;8.73;;;14.30;77.70;;;;;;4806413;29;20508;-71
2021/09/03 02:09:14;;;;;;;21.70;8.48;;;14.30;77.80;;;;;;4806399;29;20440;-72
2021/09/03 02:11:43;;;;;;;19.20;9.45;;;14.40;77.80;;;;;;4806620;29;20062;-72
2021/09/03 02:14:10;;;;;;;18.05;8.70;;;14.30;77.90;;;;;;4806282;29;20055;-72
2021/09/03 02:16:38;;;;;;;18.65;8.10;;;14.30;78.00;;;;;;4806656;29;20522;-72
2021/09/03 02:19:05;;;;;;;18.33;9.25;;;14.30;78.00;;;;;;4805766;29;20170;-72
2021/09/03 02:21:33;;;;;;;16.45;8.27;;;14.30;78.10;;;;;;4803878;29;20047;-72
2021/09/03 02:24:02;;;;;;;20.92;8.23;;;14.30;78.20;;;;;;4801870;29;20051;-72
2021/09/03 02:26:29;;;;;;;21.88;9.07;;;14.20;78.30;;;;;;4801612;29;20047;-71
2021/09/03 02:28:57;;;;;;;19.25;8.43;;;14.30;78.30;;;;;;4801863;29;20418;-72
2021/09/03 02:31:25;;;;;;;15.65;8.00;;;14.30;78.40;;;;;;4801540;29;20058;-72
2021/09/03 02:33:52;;;;;;;16.08;7.53;;;14.20;78.40;;;;;;4801407;29;20055;-71
2021/09/03 02:36:20;;;;;;;16.63;8.10;;;14.20;78.50;;;;;;4799821;29;20058;-72
2021/09/03 02:38:47;;;;;;;14.20;8.07;;;14.20;78.60;;;;;;4800151;29;20058;-72
2021/09/03 02:41:15;;;;;;;20.23;8.20;;;14.30;78.50;;;;;;4801885;29;20046;-72
2021/09/03 02:43:43;;;;;;;16.60;8.35;;;14.20;78.50;;;;;;4801873;29;20058;-72
2021/09/03 02:46:10;;;;;;;15.77;7.50;;;14.20;78.60;;;;;;4800300;29;20066;-71
2021/09/03 02:48:38;;;;;;;15.07;8.15;;;14.20;78.70;;;;;;4801831;29;21844;-72
2021/09/03 02:51:06;;;;;;;15.55;8.13;;;14.30;78.80;;;;;;4799384;29;20062;-71
2021/09/03 02:53:33;;;;;;;19.83;8.40;;;14.20;78.80;;;;;;4801230;29;20054;-71
2021/09/03 02:56:01;;;;;;;17.77;8.65;;;14.20;78.80;;;;;;4800192;29;20058;-72
2021/09/03 02:58:29;;;;;;;17.58;7.82;;;14.20;78.90;;;;;;4801462;29;20050;-72
2021/09/03 03:00:57;;;;;;;10.90;7.65;;;14.20;79.00;;;;;;4801208;29;20066;-73
2021/09/03 03:03:25;;;;;;;13.27;7.57;;;14.20;79.00;;;;;;4799801;29;20070;-72
2021/09/03 03:05:52;;;;;;;18.60;7.65;;;14.20;79.10;;;;;;4799421;29;20055;-71
2021/09/03 03:08:20;;;;;;;17.40;8.13;;;14.10;79.10;;;;;;4800890;29;20043;-71
2021/09/03 03:10:47;;;;;;;18.17;8.20;;;14.10;79.20;;;;;;4801320;29;20059;-71
2021/09/03 03:13:29;;;;;;;17.10;8.30;;;14.10;79.30;;;;;;4801365;29;20065;-72
2021/09/03 03:15:57;;;;;;;18.38;8.43;;;14.10;79.40;;;;;;4799126;29;20708;-72
2021/09/03 03:18:25;;;;;;;18.90;8.43;;;14.10;79.60;;;;;;4815117;29;20401;-72
2021/09/03 03:20:53;;;;;;;17.20;8.75;;;14.00;79.70;;;;;;4797889;29;20047;-73
2021/09/03 03:23:20;;;;;;;14.73;7.85;;;14.00;79.70;;;;;;4800547;29;20051;-72
2021/09/03 03:25:49;;;;;;;15.73;7.88;;;14.00;79.70;;;;;;4798981;29;20059;-72
2021/09/03 03:28:16;;;;;;;19.52;8.38;;;14.00;79.80;;;;;;4799542;29;20049;-72
2021/09/03 03:30:44;;;;;;;16.55;8.98;;;14.00;79.80;;;;;;4800034;29;20058;-72
2021/09/03 03:33:11;;;;;;;15.73;8.13;;;14.00;79.90;;;;;;4800036;29;20051;-72
2021/09/03 03:35:39;;;;;;;14.52;8.23;;;14.00;80.00;;;;;;4800105;29;20073;-72
2021/09/03 03:38:07;;;;;;;15.27;8.43;;;14.00;80.00;;;;;;4800401;29;20061;-72
2021/09/03 03:40:34;;;;;;;18.10;8.25;;;14.00;80.10;;;;;;4800278;29;20050;-72
2021/09/03 03:43:02;;;;;;;18.20;8.48;;;14.00;80.10;;;;;;4799170;29;20066;-72
2021/09/03 03:45:29;;;;;;;16.30;8.18;;;13.90;80.10;;;;;;4799802;29;20059;-72
2021/09/03 03:47:57;;;;;;;12.68;7.85;;;13.90;80.10;;;;;;4801211;29;20055;-72
2021/09/03 03:50:24;;;;;;;16.60;7.97;;;13.90;80.20;;;;;;4800161;29;20058;-72
2021/09/03 03:52:52;;;;;;;15.02;8.35;;;13.90;80.30;;;;;;4800515;29;20054;-72
2021/09/03 03:55:20;;;;;;;15.38;8.15;;;13.90;80.30;;;;;;4798670;29;20081;-72
2021/09/03 03:57:48;;;;;;;14.55;7.82;;;13.90;80.30;;;;;;4799536;29;20059;-72
2021/09/03 04:00:16;;;;;;;12.82;7.63;;;13.90;80.20;;;;;;4814243;29;20055;-72
2021/09/03 04:02:44;;;;;;;12.82;7.55;;;13.90;80.20;;;;;;4799990;29;20446;-73
2021/09/03 04:05:16;;;;;;;15.27;7.43;;;13.90;80.20;;;;;;4813696;29;20047;-72
2021/09/03 04:07:43;;;;;;;15.63;7.80;;;13.90;80.20;;;;;;4798659;29;20073;-71
2021/09/03 04:10:11;;;;;;;11.55;7.85;;;13.90;80.20;;;;;;4814044;29;20539;-72
2021/09/03 04:12:38;;;;;;;16.52;7.57;;;13.90;80.20;;;;;;4813588;29;20083;-72
2021/09/03 04:15:07;;;;;;;13.88;7.28;;;13.90;80.20;;;;;;4802007;29;20050;-72
2021/09/03 04:17:35;;;;;;;12.23;7.30;;;13.90;80.20;;;;;;4804188;29;20065;-72
2021/09/03 04:20:03;;;;;;;14.25;7.38;;;13.90;80.20;;;;;;4818753;29;20051;-72
2021/09/03 04:22:30;;;;;;;14.88;7.35;;;13.90;80.20;;;;;;4804862;29;20405;-72
2021/09/03 04:24:58;;;;;;;14.30;7.20;;;13.90;80.20;;;;;;4803731;29;20051;-72
2021/09/03 04:27:25;;;;;;;17.55;7.63;;;13.90;80.10;;;;;;4818513;29;20061;-72
2021/09/03 04:29:54;;;;;;;18.13;8.13;;;13.90;80.20;;;;;;4804655;29;20050;-72
2021/09/03 04:32:22;;;;;;;15.50;7.75;;;13.90;80.20;;;;;;4804592;29;20549;-72
2021/09/03 04:34:49;;;;;;;14.95;6.93;;;13.90;80.20;;;;;;4804853;29;20058;-73
2021/09/03 04:37:20;;;;;;;19.45;7.55;;;13.90;80.20;;;;;;4817628;29;20047;-73
2021/09/03 04:39:47;;;;;;;14.48;7.05;;;13.90;80.20;;;;;;4804312;29;20043;-73
2021/09/03 04:42:15;;;;;;;15.02;6.38;;;13.90;80.20;;;;;;4803592;29;20050;-73
2021/09/03 04:44:42;;;;;;;11.82;6.30;;;13.90;80.20;;;;;;4802435;29;20054;-73
2021/09/03 04:47:10;;;;;;;10.65;6.40;;;13.90;80.20;;;;;;4803880;29;20055;-72
2021/09/03 04:49:38;;;;;;;12.35;6.90;;;13.90;80.20;;;;;;4793110;29;20062;-72
2021/09/03 04:52:06;;;;;;;13.60;6.80;;;13.90;80.10;;;;;;4803207;29;20517;-72
2021/09/03 04:54:33;;;;;;;15.95;6.90;;;14.00;80.10;;;;;;4803128;29;20050;-72
2021/09/03 04:57:01;;;;;;;16.38;7.15;;;14.00;80.10;;;;;;4804400;29;20058;-73
2021/09/03 04:59:28;;;;;;;9.35;6.70;;;13.90;80.10;;;;;;4804462;29;20042;-70
2021/09/03 05:01:56;;;;;;;11.50;6.65;;;13.90;80.10;;;;;;4818063;29;20502;-72
2021/09/03 05:04:29;;;;;;;11.25;6.50;;;13.90;80.10;;;;;;4804539;29;20055;-72
2021/09/03 05:06:56;;;;;;;13.43;6.45;;;13.90;80.20;;;;;;4804596;29;20509;-72
2021/09/03 05:09:24;;;;;;;11.82;6.63;;;14.00;80.30;;;;;;4818118;29;20425;-72
2021/09/03 05:11:53;;;;;;;12.57;5.95;;;13.90;80.30;;;;;;4802858;29;20059;-73
2021/09/03 05:14:21;;;;;;;8.15;6.10;;;13.90;80.30;;;;;;4802927;29;20099;-72
2021/09/03 05:16:48;;;;;;;13.13;6.60;;;13.90;80.30;;;;;;4804339;29;20066;-72
2021/09/03 05:19:16;;;;;;;8.85;6.32;;;13.90;80.40;;;;;;4804159;29;20055;-73
2021/09/03 05:21:43;;;;;;;11.88;6.63;;;13.80;80.50;;;;;;4804659;29;20059;-72
2021/09/03 05:24:11;;;;;;;11.70;6.57;;;13.90;80.60;;;;;;4802779;29;20062;-72
2021/09/03 05:26:39;;;;;;;12.27;6.03;;;13.80;80.60;;;;;;4805722;29;20668;-72
2021/09/03 05:29:06;;;;;;;11.48;6.10;;;13.80;80.70;;;;;;4807467;29;20493;-72
2021/09/03 05:31:34;;;;;;;16.75;6.03;;;13.80;80.80;;;;;;4807474;29;20062;-72
2021/09/03 05:34:01;;;;;;;10.68;6.18;;;13.80;80.80;;;;;;4807342;29;20051;-73
2021/09/03 05:36:29;;;;;;;12.40;6.03;;;13.80;80.90;;;;;;4806250;29;20066;-73
2021/09/03 05:38:56;;;;;;;9.68;6.40;;;13.80;81.00;;;;;;4807547;29;20055;-72
2021/09/03 05:41:24;;;;;;;10.52;6.35;;;13.80;81.00;;;;;;4807169;29;20168;-72
2021/09/03 05:43:51;;;;;;;8.88;6.28;;;13.80;81.00;;;;;;4807295;29;20399;-72
2021/09/03 05:46:19;;;;;;;7.63;5.90;;;13.80;81.10;;;;;;4806576;29;20439;-72
2021/09/03 05:48:46;;;;;;;11.60;7.22;;;13.80;81.10;;;;;;4806995;29;20051;-72
2021/09/03 05:51:14;;;;;;;11.55;6.20;;;13.80;81.20;;;;;;4807286;29;20051;-72
2021/09/03 05:53:41;;;;;;;11.23;6.15;;;13.80;81.30;;;;;;4806753;29;20055;-72
2021/09/03 05:56:09;;;;;;;10.52;6.90;;;13.80;81.40;;;;;;4806325;29;20051;-72
2021/09/03 05:58:37;;;;;;;14.50;6.38;;;13.80;81.40;;;;;;4807096;29;20051;-72
2021/09/03 06:01:05;;;;;;;12.15;6.20;;;13.80;81.50;;;;;;4805180;29;20058;-72
2021/09/03 06:03:33;;;;;;;11.20;6.45;;;13.80;81.60;;;;;;4804756;29;20051;-72
2021/09/03 06:06:00;;;;;;;9.65;5.63;;;13.80;81.60;;;;;;4806148;29;20067;-72
2021/09/03 06:08:28;;;;;;;9.80;6.40;;;13.80;81.60;;;;;;4806963;29;20042;-72
2021/09/03 06:10:55;;;;;;;11.02;6.88;;;13.80;81.60;;;;;;4805636;29;20070;-72
2021/09/03 06:13:23;;;;;;;10.30;7.15;;;13.80;81.60;;;;;;4806181;29;20055;-71
2021/09/03 06:15:51;;;;;;;11.02;7.68;;;13.80;81.60;;;;;;4820065;29;20520;-72
2021/09/03 06:18:18;;;;;;;10.95;7.35;;;13.80;81.60;;;;;;4806256;29;20063;-71
2021/09/03 06:20:46;;;;;;;12.23;8.25;;;13.80;81.60;;;;;;4805021;29;20051;-71
2021/09/03 06:23:14;;;;;;;13.32;8.38;;;13.80;81.70;;;;;;4820334;29;20043;-71
2021/09/03 06:25:41;;;;;;;15.02;8.90;;;13.80;81.70;;;;;;4806241;29;20414;-71
2021/09/03 06:28:09;;;;;;;15.40;8.70;;;13.80;81.80;;;;;;4806333;29;20055;-72
2021/09/03 06:30:36;;;;;;;11.25;8.10;;;13.80;81.90;;;;;;4805805;29;20374;-71
2021/09/03 06:33:04;;;;;;;13.10;8.50;;;13.80;81.90;;;;;;4819965;29;20519;-72
2021/09/03 06:35:32;;;;;;;16.38;9.23;;;13.80;81.90;;;;;;4805838;29;20069;-72
2021/09/03 06:37:59;;;;;;;12.90;8.70;;;13.80;81.90;;;;;;4806036;29;20061;-71
2021/09/03 06:40:27;;;;;;;14.93;8.57;;;13.80;81.90;;;;;;4790487;29;20043;-72
2021/09/03 06:42:54;;;;;;;12.40;8.30;;;13.80;81.90;;;;;;4805896;29;20055;-71
2021/09/03 06:45:25;;;;;;;14.38;8.88;;;13.80;81.80;;;;;;4805669;29;20540;-71
2021/09/03 06:47:53;;;;;;;11.88;7.78;;;13.90;81.80;;;;;;4805606;29;20062;-71
2021/09/03 06:50:20;;;;;;;15.00;7.90;;;13.90;81.80;;;;;;4819279;29;20498;-72
2021/09/03 06:52:48;;;;;;;12.38;7.40;;;13.90;81.70;;;;;;4798083;29;20054;-72
2021/09/03 06:55:16;;;;;;;13.43;8.43;;;13.80;81.70;;;;;;4819145;29;20055;-71
2021/09/03 06:57:43;;;;;;;12.65;8.50;;;13.90;81.70;;;;;;4804973;29;20066;-71
2021/09/03 07:00:12;;;;;;;21.13;9.50;;;13.80;81.70;;;;;;4805547;29;20050;-72
2021/09/03 07:02:39;;;;;;;13.77;9.48;;;13.90;81.80;;;;;;4789428;29;20054;-71
2021/09/03 07:05:09;;;;;;;15.90;9.32;;;13.80;81.80;;;;;;4819243;29;20054;-71
2021/09/03 07:07:37;;;;;;;15.82;9.30;;;13.80;81.90;;;;;;4805767;29;20057;-72
2021/09/03 07:10:06;;;;;;;14.15;9.30;;;13.90;81.90;;;;;;4805622;29;20508;-72
2021/09/03 07:12:33;;;;;;;15.27;9.95;;;13.90;82.00;;;;;;4819187;29;20066;-71
2021/09/03 07:15:01;;;;;;;14.93;9.18;;;13.90;81.90;;;;;;4805558;29;20129;-71
2021/09/03 07:17:30;;;;;;;15.48;8.50;;;13.90;81.90;;;;;;4804762;29;20055;-71
2021/09/03 07:19:58;;;;;;;15.88;8.38;;;14.00;82.00;;;;;;4805328;29;20059;-72
2021/09/03 07:22:25;;;;;;;10.18;6.88;;;14.00;81.80;;;;;;4804262;29;20043;-75
2021/09/03 07:24:53;;;;;;;12.95;7.40;;;14.10;81.70;;;;;;4803669;29;20058;-77
2021/09/03 07:27:20;;;;;;;10.88;6.82;;;14.10;81.40;;;;;;4789067;29;20077;-71
2021/09/03 07:29:48;;;;;;;12.07;6.53;;;14.20;81.30;;;;;;4805385;29;20490;-73
2021/09/03 07:32:16;;;;;;;9.10;6.57;;;14.20;81.20;;;;;;4804702;29;20051;-72
2021/09/03 07:34:43;;;;;;;8.63;6.22;;;14.20;81.00;;;;;;4803818;29;20058;-72
2021/09/03 07:37:11;;;;;;;12.52;6.43;;;14.30;80.90;;;;;;4805146;29;20145;-72
2021/09/03 07:39:38;;;;;;;14.95;7.00;;;14.30;80.80;;;;;;4804407;29;20046;-72
2021/09/03 07:42:06;;;;;;;8.85;6.53;;;14.30;80.60;;;;;;4805270;29;20047;-72
2021/09/03 07:44:33;;;;;;;13.20;7.53;;;14.30;80.40;;;;;;4805295;29;20059;-72
2021/09/03 07:47:01;;;;;;;11.10;6.97;;;14.40;80.40;;;;;;4803601;29;20051;-72
2021/09/03 07:49:29;;;;;;;13.02;8.10;;;14.40;80.30;;;;;;4803918;29;20054;-72
2021/09/03 07:51:56;;;;;;;16.98;8.13;;;14.40;80.20;;;;;;4805011;29;20050;-72
2021/09/03 07:54:24;;;;;;;16.17;8.85;;;14.40;80.20;;;;;;4805403;29;20055;-72
2021/09/03 07:56:52;;;;;;;17.75;9.10;;;14.50;80.30;;;;;;4805160;29;20043;-72
2021/09/03 07:59:20;;;;;;;12.98;8.93;;;14.50;80.40;;;;;;4805177;29;20489;-73
2021/09/03 08:01:47;;;;;;;15.55;9.82;;;14.40;80.60;;;;;;4804838;29;20058;-72
2021/09/03 08:04:17;;;;;;;15.93;10.00;;;14.40;80.80;;;;;;4804912;29;20059;-72
2021/09/03 08:06:45;;;;;;;14.02;9.52;;;14.40;80.90;;;;;;4805201;29;20043;-72
2021/09/03 08:09:12;;;;;;;14.40;10.32;;;14.40;81.00;;;;;;4809865;29;20552;-72
2021/09/03 08:11:40;;;;;;;16.75;10.93;;;14.50;81.10;;;;;;4805088;29;20054;-71
2021/09/03 08:14:08;;;;;;;17.73;10.68;;;14.50;81.20;;;;;;4804970;29;20062;-72
2021/09/03 08:16:35;;;;;;;23.95;11.52;;;14.50;81.20;;;;;;4805189;29;20057;-72
2021/09/03 08:19:04;;;;;;;21.75;11.82;;;14.40;81.40;;;;;;4804685;29;20493;-73
2021/09/03 08:21:31;;;;;;;22.40;13.38;;;14.40;81.60;;;;;;4804912;29;20066;-73
2021/09/03 08:23:59;;;;;;;20.50;12.68;;;14.40;81.70;;;;;;4804898;29;20058;-73
2021/09/03 08:26:27;;;;;;;21.48;13.60;;;14.50;81.80;;;;;;4804642;29;20054;-73
2021/09/03 08:28:54;;;;;;;23.48;13.70;;;14.60;81.70;;;;;;4804612;29;20051;-73
2021/09/03 08:31:23;;;;;;;25.13;13.80;;;14.70;81.70;;;;;;4804767;29;20513;-73
2021/09/03 08:33:50;;;;;;;20.73;13.73;;;14.70;81.60;;;;;;4803511;29;20061;-73
2021/09/03 08:36:18;;;;;;;22.45;12.77;;;14.80;81.70;;;;;;4805167;29;20054;-73
2021/09/03 08:38:46;;;;;;;23.70;14.15;;;14.80;81.60;;;;;;4804805;29;20055;-73
2021/09/03 08:41:17;;;;;;;21.75;13.75;;;14.80;81.50;;;;;;4805145;29;20062;-73
2021/09/03 08:43:45;;;;;;;21.63;13.48;;;14.90;81.50;;;;;;4817780;29;20059;-73
2021/09/03 08:46:14;;;;;;;25.58;13.48;;;15.00;81.40;;;;;;4804417;29;20050;-73
2021/09/03 08:48:44;;;;;;;22.10;12.88;;;15.00;81.10;;;;;;4804612;29;20138;-73
2021/09/03 08:51:11;;;;;;;20.05;11.98;;;15.10;80.90;;;;;;4803551;29;20047;-73
2021/09/03 08:53:39;;;;;;;17.67;11.43;;;15.20;80.70;;;;;;4804480;29;20055;-73
2021/09/03 08:56:06;;;;;;;17.15;11.32;;;15.20;80.60;;;;;;4804539;29;20054;-73
2021/09/03 08:58:35;;;;;;;21.10;12.07;;;15.20;80.50;;;;;;4804350;29;20073;-73
2021/09/03 09:01:14;;;;;;;21.30;12.10;;;15.20;80.40;;;;;;4806788;29;20530;-72
2021/09/03 09:03:44;;;;;;;21.20;12.65;;;15.20;80.60;;;;;;4807886;29;20061;-72
2021/09/03 09:06:26;;;;;;;18.80;11.48;;;15.30;80.60;;;;;;4808204;29;20043;-72
2021/09/03 09:09:03;;;;;;;18.27;11.43;;;15.30;80.60;;;;;;4807439;29;20058;-72
2021/09/03 09:11:34;;;;;;;17.17;11.20;;;15.30;80.50;;;;;;4807745;29;20054;-72
2021/09/03 09:14:07;;;;;;;20.58;10.77;;;15.30;80.30;;;;;;4807892;29;20528;-72
2021/09/03 09:16:35;;;;;;;19.27;11.07;;;15.30;80.30;;;;;;4807396;29;20059;-72
2021/09/03 09:19:05;;;;;;;20.73;11.40;;;15.30;80.20;;;;;;4807279;29;20055;-72
2021/09/03 09:21:37;;;;;;;19.15;12.13;;;15.30;80.10;;;;;;4807559;29;20505;-72
2021/09/03 09:24:13;;;;;;;19.75;13.20;;;15.30;80.10;;;;;;4807302;29;20058;-73
2021/09/03 09:26:48;;;;;;;24.98;13.27;;;15.30;80.10;;;;;;4807766;29;20489;-73
2021/09/03 09:29:22;;;;;;;16.25;11.40;;;15.40;80.10;;;;;;4807510;29;20058;-72
2021/09/03 09:31:55;;;;;;;17.85;11.60;;;15.50;80.10;;;;;;4807652;29;20051;-72
2021/09/03 09:34:24;;;;;;;17.33;11.27;;;15.50;80.10;;;;;;4807498;29;20062;-73
2021/09/03 09:36:53;;;;;;;15.93;10.20;;;15.60;80.00;;;;;;4807357;29;20073;-74
2021/09/03 09:39:23;;;;;;;16.17;10.35;;;15.70;79.90;;;;;;4807186;29;20057;-73
2021/09/03 09:42:01;;;;;;;19.13;10.57;;;15.70;79.60;;;;;;4807309;29;20054;-73
2021/09/03 09:44:30;;;;;;;15.20;10.20;;;15.70;79.30;;;;;;4820753;29;20063;-73
2021/09/03 09:47:07;;;;;;;15.73;10.18;;;15.80;79.20;;;;;;4806955;29;20058;-73
2021/09/03 09:49:35;;;;;;;16.60;10.50;;;15.80;79.00;;;;;;4806791;29;20063;-73
2021/09/03 09:52:04;;;;;;;14.40;9.60;;;15.90;78.60;;;;;;4807062;29;20055;-73
2021/09/03 09:54:32;;;;;;;16.80;9.95;;;15.90;78.40;;;;;;4805426;29;20374;-73
2021/09/03 09:57:03;;;;;;;12.93;9.32;;;15.90;78.30;;;;;;4807240;29;20043;-72
2021/09/03 09:59:33;;;;;;;18.85;10.07;;;15.90;78.30;;;;;;4806735;29;20047;-73
2021/09/03 10:02:04;;;;;;;16.20;9.57;;;15.90;78.20;;;;;;4806359;29;20059;-73
2021/09/03 10:04:32;;;;;;;13.35;8.93;;;15.90;78.20;;;;;;4806902;29;20051;-73
2021/09/03 10:07:01;;;;;;;14.32;9.07;;;15.90;78.10;;;;;;4805941;29;20068;-71
2021/09/03 10:09:31;;;;;;;12.63;8.90;;;15.90;78.30;;;;;;4806569;29;20050;-71
2021/09/03 10:12:01;;;;;;;9.75;7.40;;;15.90;78.20;;;;;;4805209;29;20383;-72
2021/09/03 10:14:32;;;;;;;13.15;7.80;;;16.00;78.00;;;;;;4805781;29;20050;-71
2021/09/03 10:17:01;;;;;;;11.73;7.57;;;16.00;77.90;;;;;;4806349;29;20062;-71
2021/09/03 10:19:35;;;;;;;9.95;7.85;;;16.00;77.80;;;;;;4805545;29;20054;-72
2021/09/03 10:22:07;;;;;;;12.77;8.25;;;16.00;77.70;;;;;;4819451;29;20051;-72
2021/09/03 10:24:35;;;;;;;11.23;8.23;;;16.10;77.60;;;;;;4819308;29;20051;-72
2021/09/03 10:27:06;;;;;;;12.18;8.10;;;16.20;77.40;;;;;;4805788;29;20433;-72
2021/09/03 10:29:38;;;;;;;14.18;8.48;;;16.30;77.30;;;;;;4803267;29;20047;-73
2021/09/03 10:32:06;;;;;;;13.40;8.13;;;16.30;77.30;;;;;;4806350;29;20058;-73
2021/09/03 10:37:16;;;;;;;12.73;9.07;;;16.40;76.70;;;;;;4806169;29;20066;-72
2021/09/03 10:40:15;;;;;;;14.30;8.48;;;16.40;76.70;;;;;;4806096;29;20401;-72
2021/09/03 10:42:51;;;;;;;10.35;7.88;;;16.50;76.60;;;;;;4811297;29;20046;-72
2021/09/03 10:45:36;;;;;;;11.00;8.45;;;16.50;76.40;;;;;;4806558;29;20050;-72
2021/09/03 10:48:20;;;;;;;14.82;8.93;;;16.50;76.60;;;;;;4805638;29;20058;-72
2021/09/03 10:50:56;;;;;;;;;;;16.50;76.70;;;;;;4805840;29;20059;-73
2021/09/03 10:53:37;;;;;;;20.30;8.52;;;16.50;76.60;;;;;;4805783;29;20322;-72
2021/09/03 10:56:18;;;;;;;12.65;7.72;;;16.50;76.70;;;;;;4804752;29;20051;-72
2021/09/03 10:58:51;;;;;;;10.70;7.22;;;16.60;76.60;;;;;;4805711;29;21480;-73
2021/09/03 11:01:19;;;;;;;10.52;7.50;;;16.60;76.30;;;;;;4805240;29;20047;-73
2021/09/03 11:03:51;;;;;;;10.65;7.68;;;16.60;76.20;;;;;;4805837;29;20059;-72
2021/09/03 11:06:24;;;;;;;11.05;7.97;;;16.60;76.30;;;;;;4804740;29;20042;-73
2021/09/03 11:09:21;;;;;;;14.93;7.28;;;16.60;76.30;;;;;;4818896;29;20073;-73
2021/09/03 11:11:53;;;;;;;10.00;7.38;;;16.80;75.90;;;;;;4789245;29;20062;-73
2021/09/03 11:14:29;;;;;;;9.77;7.53;;;16.80;75.70;;;;;;4805813;29;20057;-72
2021/09/03 11:17:02;;;;;;;11.00;7.15;;;16.90;75.30;;;;;;4805329;29;20057;-73
2021/09/03 11:19:39;;;;;;;;;;;17.00;75.00;;;;;;4806018;29;20055;-73
2021/09/03 11:22:14;;;;;;;11.80;7.72;;;17.00;74.70;;;;;;4804825;29;19945;-73
2021/09/03 11:24:43;;;;;;;8.35;6.15;;;17.00;74.80;;;;;;4804160;29;20062;-74
2021/09/03 11:27:22;;;;;;;8.80;6.45;;;17.10;74.30;;;;;;4804697;29;20054;-73
2021/09/03 11:30:00;;;;;;;9.20;6.53;;;17.20;73.90;;;;;;4804506;29;20054;-73
2021/09/03 11:32:31;;;;;;;7.78;6.00;;;17.20;73.70;;;;;;4804937;29;20043;-73
2021/09/03 11:35:03;;;;;;;7.18;6.13;;;17.20;73.30;;;;;;4818787;29;20066;-73
2021/09/03 11:37:50;;;;;;;6.45;5.57;;;17.20;73.40;;;;;;4803109;29;20512;-73
2021/09/03 11:40:19;;;;;;;6.75;5.68;;;17.20;73.30;;;;;;4816905;29;20054;-72
2021/09/03 11:42:49;;;;;;;8.85;5.65;;;17.30;73.20;;;;;;4804772;29;20051;-73
2021/09/03 11:45:20;;;;;;;10.10;6.00;;;17.30;72.90;;;;;;4804157;29;20059;-73
2021/09/03 11:47:59;;;;;;;10.05;6.25;;;17.40;72.70;;;;;;4805000;29;20043;-74
2021/09/03 11:50:33;;;;;;;8.63;6.22;;;17.40;72.30;;;;;;4804512;29;20059;-74
2021/09/03 11:53:02;;;;;;;;;;;17.50;72.20;;;;;;4805005;29;20450;-74
2021/09/03 11:55:39;;;;;;;8.60;5.50;;;17.50;72.00;;;;;;4803348;29;20016;-73
2021/09/03 11:58:20;;;;;;;7.25;5.88;;;17.60;71.90;;;;;;4805277;29;20055;-73
2021/09/03 12:00:50;;;;;;;6.85;5.70;;;17.80;71.70;;;;;;4804175;29;20055;-73
2021/09/03 12:03:43;;;;;;;8.85;5.53;;;17.80;71.50;;;;;;4817927;29;20055;-73
2021/09/03 12:06:16;;;;;;;9.70;5.72;;;17.80;71.10;;;;;;4803995;29;20059;-72
2021/09/03 12:08:45;;;;;;;9.25;6.00;;;17.80;70.90;;;;;;4801966;29;20051;-73
2021/09/03 12:11:14;;;;;;;13.43;5.95;;;17.80;70.70;;;;;;4805203;29;20065;-72
2021/09/03 12:13:50;;;;;;;8.73;5.72;;;17.90;70.50;;;;;;4805141;29;20065;-74
2021/09/03 12:16:22;;;;;;;11.27;6.40;;;17.90;70.00;;;;;;4803796;29;20059;-72
2021/09/03 12:18:57;;;;;;;9.98;6.57;;;17.90;69.90;;;;;;4798059;29;20130;-73
2021/09/03 12:21:35;;;;;;;9.63;6.63;;;17.90;69.80;;;;;;4804429;29;20063;-73
2021/09/03 12:24:09;;;;;;;9.32;6.22;;;17.80;69.80;;;;;;4803684;29;20502;-72
2021/09/03 12:26:53;;;;;;;14.88;6.43;;;17.80;70.10;;;;;;4805119;29;20554;-72
2021/09/03 12:29:22;;;;;;;9.55;6.40;;;17.80;70.20;;;;;;4805106;29;20062;-72
2021/09/03 12:31:51;;;;;;;10.93;6.25;;;17.80;70.30;;;;;;4800867;29;20058;-73
2021/09/03 12:34:23;;;;;;;8.38;6.32;;;17.70;70.70;;;;;;4789775;29;20062;-72
2021/09/03 12:36:58;;;;;;;11.52;6.68;;;17.60;70.90;;;;;;4802317;29;20054;-72
2021/09/03 12:39:27;;;;;;;9.05;6.68;;;17.50;71.00;;;;;;4807905;29;20054;-73
2021/09/03 12:41:55;;;;;;;11.60;6.95;;;17.50;71.20;;;;;;4806575;29;20047;-72
2021/09/03 12:44:24;;;;;;;11.40;6.43;;;17.50;71.20;;;;;;4808511;29;20051;-72
2021/09/03 12:46:54;;;;;;;9.32;6.53;;;17.70;71.30;;;;;;4806613;29;20070;-73
2021/09/03 12:49:29;;;;;;;13.75;7.25;;;17.80;71.00;;;;;;4808448;29;20078;-73
2021/09/03 12:52:01;;;;;;;9.88;6.85;;;18.00;70.70;;;;;;4806060;29;20386;-73